Time;durP1;ratioP1;P1;durP2;ratioP2;P2;SDS_P1;SDS_P2;PMS_P1;PMS_P2;Temp;Humidity;BMP_temperature;BMP_pressure;BME280_temperature;BME280_humidity;BME280_pressure;Samples;Min_cycle;Max_cycle;Signal;HPM_P1;HPM_P2
2022/06/16 00:00:23;;;;;;;7.10;1.88;;;16.00;95.00;;;;;;5040776;28;20053;-68
2022/06/16 00:02:51;;;;;;;9.30;2.13;;;16.00;95.10;;;;;;5041999;28;20029;-68
2022/06/16 00:05:21;;;;;;;6.55;2.30;;;16.00;95.10;;;;;;5040976;28;20140;-68
2022/06/16 00:07:47;;;;;;;7.70;2.17;;;16.00;95.20;;;;;;5040941;28;20021;-69
2022/06/16 00:10:13;;;;;;;5.95;2.08;;;16.00;95.30;;;;;;5040721;28;20071;-68
2022/06/16 00:12:40;;;;;;;5.80;2.08;;;15.90;95.50;;;;;;5024863;28;20086;-68
2022/06/16 00:15:08;;;;;;;5.30;2.10;;;15.90;95.60;;;;;;5022023;28;20032;-68
2022/06/16 00:17:34;;;;;;;9.75;2.10;;;15.90;95.60;;;;;;5024112;28;20024;-68
2022/06/16 00:20:01;;;;;;;5.20;2.03;;;15.90;95.60;;;;;;5040812;28;20443;-68
2022/06/16 00:22:27;;;;;;;10.05;2.63;;;15.90;95.70;;;;;;5024348;28;20029;-68
2022/06/16 00:24:53;;;;;;;6.13;2.55;;;15.90;95.80;;;;;;5037826;28;20034;-68
2022/06/16 00:27:19;;;;;;;11.48;2.45;;;15.80;96.00;;;;;;5021973;28;20022;-69
2022/06/16 00:29:45;;;;;;;10.18;2.78;;;15.90;96.10;;;;;;5021308;28;20096;-68
2022/06/16 00:32:11;;;;;;;11.40;2.65;;;15.80;96.10;;;;;;5022062;28;20137;-68
2022/06/16 00:34:37;;;;;;;8.32;2.67;;;15.90;96.20;;;;;;5021615;28;20145;-68
2022/06/16 00:37:02;;;;;;;8.30;2.40;;;15.80;96.30;;;;;;5022739;28;20117;-68
2022/06/16 00:39:29;;;;;;;11.73;2.70;;;15.80;96.40;;;;;;5021187;28;20041;-68
2022/06/16 00:41:55;;;;;;;10.48;2.95;;;15.80;96.50;;;;;;5020590;28;20061;-68
2022/06/16 00:44:42;;;;;;;11.73;2.80;;;15.80;96.60;;;;;;5021797;28;20037;-68
2022/06/16 00:47:08;;;;;;;10.23;2.92;;;15.70;96.70;;;;;;5026685;28;20050;-68
2022/06/16 00:49:35;;;;;;;10.77;2.78;;;15.80;96.80;;;;;;5004288;28;20041;-69
2022/06/16 00:52:10;;;;;;;10.45;3.28;;;15.70;96.90;;;;;;5021909;28;20022;-68
2022/06/16 00:54:44;;;;;;;11.02;3.10;;;15.80;96.90;;;;;;5020558;28;20084;-68
2022/06/16 00:57:16;;;;;;;11.63;3.05;;;15.70;97.10;;;;;;5020626;28;20076;-68
2022/06/16 00:59:43;;;;;;;9.23;2.65;;;15.70;97.20;;;;;;5020967;28;20249;-68
2022/06/16 01:02:09;;;;;;;10.15;2.90;;;15.70;97.40;;;;;;5024856;28;20033;-68
2022/06/16 01:07:30;;;;;;;8.95;2.40;;;15.70;97.50;;;;;;5023457;28;20071;-67
2022/06/16 01:09:57;;;;;;;13.50;3.40;;;15.60;97.70;;;;;;5023608;28;20030;-67
2022/06/16 01:16:18;;;;;;;10.77;2.55;;;15.60;97.70;;;;;;5011559;28;20065;-67
2022/06/16 01:19:19;;;;;;;9.00;2.90;;;15.60;97.80;;;;;;5024086;28;20344;-67
2022/06/16 01:21:58;;;;;;;9.25;2.72;;;15.50;97.90;;;;;;5024322;28;20358;-67
2022/06/16 01:24:54;;;;;;;11.82;3.03;;;15.60;98.00;;;;;;5024803;28;20218;-67
2022/06/16 01:27:47;;;;;;;8.85;2.50;;;15.50;98.00;;;;;;5023586;28;20026;-67
2022/06/16 01:30:15;;;;;;;8.05;2.95;;;15.50;98.10;;;;;;5023022;28;20024;-67
2022/06/16 01:32:55;;;;;;;20.33;3.08;;;15.40;98.30;;;;;;5038768;28;20071;-67
2022/06/16 01:35:31;;;;;;;9.60;2.65;;;15.40;98.30;;;;;;5024579;28;20032;-67
2022/06/16 01:38:36;;;;;;;8.75;2.72;;;15.40;98.30;;;;;;5023973;28;20033;-67
2022/06/16 01:41:30;;;;;;;9.60;2.83;;;15.20;98.50;;;;;;5025286;28;20014;-67
2022/06/16 01:44:03;;;;;;;7.78;3.10;;;15.10;98.70;;;;;;5025777;28;20038;-67
2022/06/16 01:46:32;;;;;;;6.05;2.78;;;15.00;98.50;;;;;;5028220;28;20056;-67
2022/06/16 01:49:02;;;;;;;7.07;2.88;;;14.80;98.50;;;;;;5058949;28;20263;-67
2022/06/16 01:51:42;;;;;;;6.97;2.70;;;14.80;98.70;;;;;;5043283;28;20028;-67
2022/06/16 01:54:14;;;;;;;6.85;2.80;;;14.60;98.80;;;;;;5042445;28;20049;-67
2022/06/16 01:57:07;;;;;;;6.40;2.42;;;14.50;98.80;;;;;;5044073;28;20017;-67
2022/06/16 01:59:43;;;;;;;11.40;3.00;;;14.50;98.90;;;;;;5042214;28;20205;-67
2022/06/16 02:02:15;;;;;;;8.25;3.10;;;14.40;98.90;;;;;;5042694;28;20392;-67
2022/06/16 02:05:04;;;;;;;8.88;2.97;;;14.40;98.90;;;;;;5043785;28;20028;-67
2022/06/16 02:07:42;;;;;;;17.70;3.78;;;14.30;99.00;;;;;;5029520;28;20033;-67
2022/06/16 02:10:17;;;;;;;12.52;3.60;;;14.30;99.10;;;;;;5042141;28;20037;-67
2022/06/16 02:13:00;;;;;;;19.85;3.25;;;14.30;99.20;;;;;;5043202;28;20052;-67
2022/06/16 02:15:53;;;;;;;11.68;3.30;;;14.20;99.20;;;;;;5026150;28;20182;-67
2022/06/16 02:18:23;;;;;;;7.40;3.20;;;14.20;99.10;;;;;;5042831;28;20022;-67
2022/06/16 02:20:58;;;;;;;8.65;3.72;;;14.20;99.10;;;;;;5042374;28;20057;-67
2022/06/16 02:23:24;;;;;;;10.27;3.47;;;14.20;99.10;;;;;;5023266;28;20044;-67
2022/06/16 02:25:54;;;;;;;11.32;3.20;;;14.20;99.10;;;;;;5022206;28;20029;-67
2022/06/16 02:28:20;;;;;;;7.13;3.40;;;14.20;99.10;;;;;;5038171;28;20017;-67
2022/06/16 02:30:58;;;;;;;10.73;3.58;;;14.20;99.20;;;;;;5062895;28;20038;-67
2022/06/16 02:33:50;;;;;;;9.50;3.00;;;14.10;99.20;;;;;;5062012;28;20040;-67
2022/06/16 02:36:38;;;;;;;9.32;3.17;;;14.10;99.20;;;;;;5047970;28;20320;-67
2022/06/16 02:39:34;;;;;;;8.60;3.00;;;14.10;99.30;;;;;;5061666;28;20032;-67
2022/06/16 02:42:20;;;;;;;8.80;2.88;;;14.00;99.40;;;;;;5047646;28;20044;-67
2022/06/16 02:45:20;;;;;;;12.07;3.08;;;13.90;99.50;;;;;;5061754;28;20412;-67
2022/06/16 02:48:20;;;;;;;13.18;3.78;;;14.00;99.40;;;;;;5046247;28;20021;-67
2022/06/16 02:51:20;;;;;;;11.70;3.90;;;14.00;99.30;;;;;;5042006;28;20106;-68
2022/06/16 02:54:10;;;;;;;10.82;4.00;;;14.00;99.40;;;;;;5041520;28;20035;-67
2022/06/16 02:57:01;;;;;;;11.07;3.92;;;14.00;99.50;;;;;;5041324;28;20083;-67
2022/06/16 02:59:35;;;;;;;14.38;3.67;;;13.90;99.80;;;;;;5041603;28;20052;-67
2022/06/16 03:02:06;;;;;;;10.82;3.67;;;14.00;99.70;;;;;;5042136;28;20037;-67
2022/06/16 03:04:35;;;;;;;10.93;3.40;;;14.00;99.60;;;;;;5024648;28;20033;-67
2022/06/16 03:07:01;;;;;;;9.52;4.00;;;14.00;99.60;;;;;;5025522;28;20078;-67
2022/06/16 03:09:27;;;;;;;7.97;3.50;;;13.90;99.60;;;;;;5042691;28;20044;-67
2022/06/16 03:11:52;;;;;;;10.88;3.47;;;14.00;99.60;;;;;;5042490;28;20053;-67
2022/06/16 03:14:19;;;;;;;13.75;3.47;;;14.00;99.70;;;;;;5041309;28;20017;-67
2022/06/16 03:16:45;;;;;;;9.93;3.20;;;13.90;99.80;;;;;;5039729;28;20029;-67
2022/06/16 03:19:11;;;;;;;8.32;2.80;;;13.90;99.90;;;;;;5041296;28;20068;-67
2022/06/16 03:21:36;;;;;;;11.82;2.90;;;14.10;99.90;;;;;;5041615;28;20029;-67
2022/06/16 03:24:02;;;;;;;5.82;2.90;;;14.30;99.90;;;;;;5041090;28;20045;-67
2022/06/16 03:26:28;;;;;;;10.13;3.63;;;14.30;99.90;;;;;;5041272;28;20040;-67
2022/06/16 03:28:54;;;;;;;10.77;3.03;;;14.40;99.90;;;;;;5029125;28;20021;-67
2022/06/16 03:31:19;;;;;;;11.90;3.28;;;14.40;99.90;;;;;;5022331;28;20033;-67
2022/06/16 03:33:45;;;;;;;9.93;3.58;;;14.40;99.90;;;;;;5023072;28;20038;-69
2022/06/16 03:36:14;;;;;;;8.13;2.90;;;14.50;99.90;;;;;;5020461;28;20101;-68
2022/06/16 03:38:43;;;;;;;9.63;3.15;;;14.50;99.90;;;;;;5022758;28;20104;-67
2022/06/16 03:41:11;;;;;;;11.55;4.13;;;14.50;99.90;;;;;;5005575;28;20220;-68
2022/06/16 03:43:37;;;;;;;15.30;3.42;;;14.50;99.90;;;;;;5022055;28;20026;-67
2022/06/16 03:46:03;;;;;;;10.15;3.05;;;14.50;99.90;;;;;;5021806;28;20034;-68
2022/06/16 03:48:29;;;;;;;5.43;2.92;;;14.60;99.90;;;;;;5040771;28;20348;-68
2022/06/16 03:50:55;;;;;;;8.27;3.72;;;14.60;99.90;;;;;;5041534;28;20041;-68
2022/06/16 03:53:21;;;;;;;6.53;2.85;;;14.40;99.90;;;;;;5040528;28;20028;-67
2022/06/16 03:55:47;;;;;;;7.25;2.90;;;14.30;99.90;;;;;;5040576;28;20052;-68
2022/06/16 03:58:14;;;;;;;14.32;3.50;;;14.10;99.90;;;;;;5040261;28;20021;-68
2022/06/16 04:00:41;;;;;;;10.93;3.10;;;14.10;99.90;;;;;;5040154;28;20396;-68
2022/06/16 04:05:54;;;;;;;5.18;3.08;;;13.90;99.90;;;;;;5027660;28;20017;-68
2022/06/16 04:08:20;;;;;;;7.00;2.95;;;13.80;99.90;;;;;;5041154;28;20021;-68
2022/06/16 04:10:46;;;;;;;11.25;4.05;;;13.80;99.90;;;;;;5040418;28;20358;-67
2022/06/16 04:13:14;;;;;;;7.63;3.22;;;13.80;99.90;;;;;;5056638;28;20327;-68
2022/06/16 04:15:40;;;;;;;11.00;3.63;;;13.80;99.90;;;;;;5042057;28;20092;-68
2022/06/16 04:18:07;;;;;;;13.35;3.85;;;13.70;99.90;;;;;;5022469;28;20021;-67
2022/06/16 04:20:33;;;;;;;15.73;4.03;;;13.70;99.90;;;;;;5040940;28;20037;-68
2022/06/16 04:22:59;;;;;;;12.75;3.50;;;13.70;99.90;;;;;;5040496;28;20017;-68
2022/06/16 04:25:30;;;;;;;13.00;3.85;;;13.70;99.90;;;;;;5037952;28;20101;-68
2022/06/16 04:27:59;;;;;;;14.02;3.50;;;13.90;99.90;;;;;;5028949;28;20033;-68
2022/06/16 04:30:25;;;;;;;16.02;3.67;;;14.10;99.90;;;;;;5060402;28;20029;-67
2022/06/16 04:32:51;;;;;;;10.80;3.08;;;14.30;99.90;;;;;;5060082;28;20252;-67
2022/06/16 04:35:16;;;;;;;9.93;3.42;;;14.50;99.90;;;;;;5062314;28;20028;-68
2022/06/16 04:37:42;;;;;;;11.63;3.00;;;14.70;99.90;;;;;;5047903;28;20021;-68
2022/06/16 04:40:10;;;;;;;7.53;3.40;;;14.80;99.90;;;;;;5065938;28;20029;-68
2022/06/16 04:42:36;;;;;;;8.00;3.03;;;14.80;99.90;;;;;;5064542;28;20028;-67
2022/06/16 04:45:03;;;;;;;8.05;3.42;;;15.00;99.90;;;;;;5064045;28;20307;-67
2022/06/16 04:47:28;;;;;;;9.02;3.17;;;15.20;99.90;;;;;;5052636;28;20021;-68
2022/06/16 04:49:54;;;;;;;7.25;3.45;;;15.20;99.90;;;;;;5012460;28;20270;-68
2022/06/16 04:52:20;;;;;;;10.25;3.42;;;15.40;99.90;;;;;;5045179;28;20032;-68
2022/06/16 04:54:47;;;;;;;5.72;3.25;;;15.50;99.80;;;;;;5045754;28;20029;-68
2022/06/16 04:57:13;;;;;;;8.65;2.90;;;15.70;99.50;;;;;;5044278;28;20204;-68
2022/06/16 04:59:39;;;;;;;9.77;3.30;;;15.90;99.20;;;;;;5043559;28;20045;-68
2022/06/16 05:02:05;;;;;;;11.80;3.40;;;16.10;98.70;;;;;;5044618;28;20030;-68
2022/06/16 05:04:32;;;;;;;10.48;3.50;;;16.20;98.40;;;;;;5043197;28;20037;-68
2022/06/16 05:06:58;;;;;;;6.45;3.10;;;16.20;97.10;;;;;;5028011;28;20300;-67
2022/06/16 05:09:25;;;;;;;8.90;3.00;;;16.10;96.90;;;;;;5043913;28;20143;-67
2022/06/16 05:11:51;;;;;;;8.00;2.90;;;16.00;96.70;;;;;;5043843;28;20300;-67
2022/06/16 05:14:16;;;;;;;7.90;3.47;;;15.90;96.80;;;;;;5043257;28;20056;-68
2022/06/16 05:16:42;;;;;;;15.38;3.35;;;15.80;96.90;;;;;;5045038;28;20017;-67
2022/06/16 05:19:08;;;;;;;8.95;3.08;;;15.80;97.00;;;;;;5043109;28;20033;-67
2022/06/16 05:21:34;;;;;;;7.90;3.30;;;15.80;97.00;;;;;;5045778;28;20196;-68
2022/06/16 05:23:59;;;;;;;6.15;3.58;;;15.70;97.20;;;;;;5044870;28;20035;-68
2022/06/16 05:26:25;;;;;;;9.25;3.63;;;15.50;97.70;;;;;;5045285;28;20048;-68
2022/06/16 05:28:51;;;;;;;12.88;3.65;;;15.50;97.90;;;;;;5032896;28;20360;-68
2022/06/16 05:31:17;;;;;;;7.43;3.40;;;15.50;98.20;;;;;;5025467;28;20047;-68
2022/06/16 05:33:43;;;;;;;10.48;3.70;;;15.40;98.40;;;;;;5024898;28;20392;-68
2022/06/16 05:36:12;;;;;;;13.07;3.97;;;15.40;98.80;;;;;;5024216;28;20068;-68
2022/06/16 05:38:38;;;;;;;12.23;3.90;;;15.40;98.80;;;;;;5024140;28;20348;-68
2022/06/16 05:41:07;;;;;;;7.82;3.85;;;15.40;98.90;;;;;;5024634;28;20297;-68
2022/06/16 05:43:33;;;;;;;12.48;3.67;;;15.40;99.10;;;;;;5023076;28;20216;-68
2022/06/16 05:45:59;;;;;;;11.40;3.78;;;15.50;99.00;;;;;;5023568;28;20013;-68
2022/06/16 05:48:25;;;;;;;21.80;4.88;;;15.70;99.00;;;;;;5042831;28;20079;-68
2022/06/16 05:50:52;;;;;;;20.02;5.60;;;15.90;99.00;;;;;;5041784;28;20017;-68
2022/06/16 05:53:18;;;;;;;16.08;4.68;;;16.00;98.90;;;;;;5042789;28;20021;-68
2022/06/16 05:55:44;;;;;;;17.15;4.70;;;16.00;99.00;;;;;;5058126;28;20033;-68
2022/06/16 05:58:10;;;;;;;17.73;4.50;;;16.10;98.90;;;;;;5043399;28;20040;-69
2022/06/16 06:00:35;;;;;;;12.88;4.47;;;16.10;98.90;;;;;;5043224;28;20248;-69
2022/06/16 06:03:01;;;;;;;13.27;5.43;;;16.20;98.80;;;;;;5043063;28;20029;-69
2022/06/16 06:05:28;;;;;;;15.55;5.88;;;16.20;99.00;;;;;;5041421;28;20033;-69
2022/06/16 06:16:35;;;;;;;12.30;5.25;;;16.30;98.30;;;;;;5029554;28;20049;-70
2022/06/16 06:24:38;;;;;;;15.75;4.80;;;16.40;98.20;;;;;;5018466;28;20117;-69
2022/06/16 06:27:25;;;;;;;13.55;4.78;;;16.60;98.10;;;;;;5006261;28;20034;-69
2022/06/16 06:29:50;;;;;;;18.85;5.13;;;16.60;97.80;;;;;;5062570;28;20094;-70
2022/06/16 06:32:20;;;;;;;16.40;5.00;;;16.60;97.60;;;;;;5061956;28;20311;-70
2022/06/16 06:34:46;;;;;;;17.92;5.13;;;16.70;97.50;;;;;;5062684;28;20326;-70
2022/06/16 06:37:13;;;;;;;13.45;4.35;;;16.90;97.10;;;;;;5064409;28;20024;-70
2022/06/16 06:39:40;;;;;;;12.15;4.75;;;17.10;96.10;;;;;;5064255;28;20052;-71
2022/06/16 06:42:06;;;;;;;12.90;4.75;;;17.20;95.90;;;;;;5063595;28;20029;-69
2022/06/16 06:44:32;;;;;;;11.75;4.60;;;17.30;95.30;;;;;;5062451;28;20036;-68
2022/06/16 06:46:59;;;;;;;9.38;4.30;;;17.20;94.80;;;;;;5053332;28;20022;-69
2022/06/16 06:49:24;;;;;;;15.98;4.70;;;17.20;95.10;;;;;;5026432;28;20029;-68
2022/06/16 06:51:50;;;;;;;10.52;4.65;;;17.20;95.20;;;;;;5042548;28;20095;-69
2022/06/16 06:54:17;;;;;;;9.15;4.68;;;17.20;95.10;;;;;;5041772;28;20037;-69
2022/06/16 06:56:44;;;;;;;9.70;4.50;;;17.20;95.00;;;;;;5041563;28;20028;-69
2022/06/16 06:59:13;;;;;;;12.55;4.80;;;17.30;95.30;;;;;;5042884;28;20057;-71
2022/06/16 07:01:39;;;;;;;10.90;4.75;;;17.30;95.20;;;;;;5042470;28;20067;-68
2022/06/16 07:04:05;;;;;;;10.88;5.05;;;17.40;94.70;;;;;;5042666;28;20275;-69
2022/06/16 07:06:31;;;;;;;11.23;5.22;;;17.60;94.10;;;;;;5043467;28;20021;-70
2022/06/16 07:08:57;;;;;;;10.85;5.68;;;17.70;93.60;;;;;;5041105;28;20017;-67
2022/06/16 07:11:23;;;;;;;10.40;4.43;;;17.70;93.40;;;;;;5037088;28;20018;-68
2022/06/16 07:13:49;;;;;;;5.40;3.60;;;17.80;93.20;;;;;;5027920;28;20093;-67
2022/06/16 07:16:14;;;;;;;6.30;3.95;;;17.90;93.00;;;;;;5037359;28;20029;-69
2022/06/16 07:18:40;;;;;;;9.40;3.97;;;17.90;92.90;;;;;;5032916;28;20061;-70
2022/06/16 07:21:06;;;;;;;7.43;3.63;;;17.90;92.90;;;;;;5029528;28;20037;-67
2022/06/16 07:23:32;;;;;;;8.93;3.63;;;17.90;92.40;;;;;;5026843;28;20048;-68
2022/06/16 07:25:58;;;;;;;6.88;3.30;;;17.90;92.20;;;;;;5028033;28;20025;-68
2022/06/16 07:28:24;;;;;;;7.07;3.10;;;18.00;92.30;;;;;;5023441;28;20037;-69
2022/06/16 07:30:50;;;;;;;5.07;3.25;;;18.20;92.00;;;;;;5035205;28;20283;-67
2022/06/16 07:33:16;;;;;;;5.07;3.42;;;18.30;91.60;;;;;;5040521;28;20038;-68
2022/06/16 07:35:43;;;;;;;8.57;3.63;;;18.40;91.60;;;;;;5041049;28;20029;-68
2022/06/16 07:38:11;;;;;;;7.60;3.55;;;18.50;91.30;;;;;;5039896;28;20018;-67
2022/06/16 07:40:37;;;;;;;10.98;3.90;;;18.60;91.20;;;;;;5030379;28;20036;-70
2022/06/16 07:43:03;;;;;;;8.75;3.30;;;18.60;91.00;;;;;;5023193;28;20036;-69
2022/06/16 07:45:29;;;;;;;7.63;3.88;;;18.80;91.00;;;;;;5021188;28;20033;-69
2022/06/16 07:47:57;;;;;;;12.90;3.90;;;19.00;90.40;;;;;;5024696;28;20041;-69
2022/06/16 07:50:23;;;;;;;6.38;3.40;;;19.20;90.20;;;;;;5027790;28;20197;-69
2022/06/16 07:52:49;;;;;;;10.25;3.60;;;19.30;90.10;;;;;;5041839;28;20040;-68
2022/06/16 07:55:18;;;;;;;7.30;3.90;;;19.50;89.30;;;;;;5030131;28;20034;-68
2022/06/16 07:57:46;;;;;;;9.40;4.25;;;19.50;88.70;;;;;;5020646;28;20033;-69
2022/06/16 08:00:17;;;;;;;7.72;3.67;;;19.60;88.40;;;;;;5021440;28;20236;-68
2022/06/16 08:02:43;;;;;;;7.57;3.95;;;19.50;88.00;;;;;;5022801;28;20032;-68
2022/06/16 08:05:11;;;;;;;10.43;3.80;;;19.70;87.60;;;;;;5040656;28;20089;-69
2022/06/16 08:07:37;;;;;;;7.13;3.40;;;19.70;87.50;;;;;;5038752;28;20074;-69
2022/06/16 08:10:04;;;;;;;9.23;4.53;;;19.90;88.50;;;;;;5029790;28;20041;-69
2022/06/16 08:12:30;;;;;;;10.73;3.95;;;20.00;86.90;;;;;;5035677;28;20026;-67
2022/06/16 08:14:55;;;;;;;7.70;4.10;;;20.10;86.80;;;;;;5042306;28;20075;-67
2022/06/16 08:17:26;;;;;;;10.32;4.50;;;20.30;86.00;;;;;;5042892;28;20056;-69
2022/06/16 08:19:52;;;;;;;8.90;3.88;;;20.40;86.00;;;;;;5040496;28;20350;-69
2022/06/16 08:22:18;;;;;;;10.48;3.88;;;20.60;85.70;;;;;;5023292;28;20060;-69
2022/06/16 08:24:44;;;;;;;7.68;3.97;;;20.80;85.60;;;;;;5034440;28;20069;-70
2022/06/16 08:27:11;;;;;;;6.97;4.07;;;21.00;84.30;;;;;;5026765;28;20053;-69
2022/06/16 08:29:39;;;;;;;10.68;4.05;;;21.10;84.10;;;;;;5062340;28;20037;-68
2022/06/16 08:32:06;;;;;;;6.25;4.07;;;21.20;83.40;;;;;;5066458;28;20242;-69
2022/06/16 08:34:32;;;;;;;6.85;3.65;;;21.30;83.40;;;;;;5065942;28;20028;-68
2022/06/16 08:36:57;;;;;;;9.15;3.95;;;21.10;83.60;;;;;;5065468;28;20067;-68
2022/06/16 08:39:23;;;;;;;8.93;4.47;;;21.20;83.90;;;;;;5066156;28;20032;-69
2022/06/16 08:41:54;;;;;;;9.05;4.10;;;21.30;83.50;;;;;;5065741;28;20087;-68
2022/06/16 08:44:28;;;;;;;8.73;4.90;;;21.30;82.90;;;;;;5055156;28;20025;-70
2022/06/16 08:47:19;;;;;;;9.85;4.55;;;21.30;82.70;;;;;;5032712;28;20435;-69
2022/06/16 08:50:24;;;;;;;13.05;4.63;;;21.20;83.10;;;;;;5022919;28;20029;-70
2022/06/16 08:53:26;;;;;;;10.52;4.15;;;21.40;83.60;;;;;;5026001;28;20487;-70
2022/06/16 08:56:04;;;;;;;8.80;4.28;;;21.50;83.10;;;;;;5022843;28;20032;-68
2022/06/16 08:59:07;;;;;;;8.38;4.10;;;21.60;83.40;;;;;;5043588;28;20331;-68
2022/06/16 09:01:54;;;;;;;14.25;4.10;;;21.80;83.50;;;;;;5028647;28;20347;-70
2022/06/16 09:04:41;;;;;;;12.45;4.35;;;22.00;82.50;;;;;;5027479;28;20233;-71
2022/06/16 09:07:31;;;;;;;15.32;4.35;;;22.30;82.60;;;;;;5029205;28;20017;-69
2022/06/16 09:10:24;;;;;;;10.27;4.50;;;22.50;81.00;;;;;;5026587;28;20324;-68
2022/06/16 09:13:23;;;;;;;10.25;4.47;;;22.60;80.80;;;;;;5023615;28;20026;-68
2022/06/16 09:16:29;;;;;;;12.48;4.55;;;22.70;81.20;;;;;;5023516;28;20071;-69
2022/06/16 09:19:27;;;;;;;9.80;4.07;;;22.70;81.10;;;;;;5030500;28;20314;-72
2022/06/16 09:22:26;;;;;;;9.30;4.72;;;22.60;81.50;;;;;;5035135;28;20285;-70
2022/06/16 09:25:20;;;;;;;11.52;4.53;;;22.70;80.90;;;;;;5024937;28;20221;-69
2022/06/16 09:27:54;;;;;;;10.23;4.60;;;22.80;80.50;;;;;;5037741;28;20158;-69
2022/06/16 09:30:23;;;;;;;7.78;4.30;;;22.80;80.30;;;;;;5063388;28;20032;-69
2022/06/16 09:33:17;;;;;;;8.85;4.57;;;22.90;80.60;;;;;;5038701;28;20072;-69
2022/06/16 09:35:48;;;;;;;14.18;4.63;;;22.90;80.50;;;;;;5014589;28;20309;-71
2022/06/16 09:38:38;;;;;;;9.75;4.25;;;22.80;80.90;;;;;;5008783;28;20109;-70
2022/06/16 09:44:04;;;;;;;7.80;5.07;;;23.10;80.10;;;;;;5034338;28;20324;-67
2022/06/16 09:46:35;;;;;;;11.65;4.57;;;23.10;80.10;;;;;;5025613;28;20036;-69
2022/06/16 09:49:06;;;;;;;8.55;4.75;;;23.00;80.00;;;;;;5022790;28;20030;-70
2022/06/16 09:51:40;;;;;;;11.63;4.72;;;23.00;79.90;;;;;;5024047;28;20029;-70
2022/06/16 09:54:24;;;;;;;13.20;4.75;;;22.90;80.00;;;;;;5010590;28;20052;-72
2022/06/16 09:56:58;;;;;;;9.20;4.38;;;22.80;80.40;;;;;;5020701;28;20362;-69
2022/06/16 09:59:46;;;;;;;11.95;4.75;;;22.90;80.00;;;;;;5011981;28;20357;-73
2022/06/16 10:02:19;;;;;;;10.55;4.50;;;23.10;80.10;;;;;;5037944;28;20078;-71
2022/06/16 10:04:49;;;;;;;15.95;5.50;;;23.40;79.10;;;;;;5040580;28;20251;-69
2022/06/16 10:07:28;;;;;;;10.45;4.45;;;23.60;78.60;;;;;;5041173;28;20109;-69
2022/06/16 10:10:18;;;;;;;9.48;4.72;;;23.90;77.80;;;;;;5020406;28;20099;-74
2022/06/16 10:13:11;;;;;;;9.52;4.15;;;24.00;76.90;;;;;;5036791;28;20143;-72
2022/06/16 10:15:46;;;;;;;12.52;5.22;;;24.20;76.40;;;;;;5022909;28;20132;-73
2022/06/16 10:18:12;;;;;;;9.40;4.55;;;24.40;76.30;;;;;;5022379;28;20045;-71
2022/06/16 10:20:38;;;;;;;8.88;4.38;;;24.40;76.10;;;;;;5025646;28;20154;-77
2022/06/16 10:23:30;;;;;;;5.78;4.10;;;24.50;76.40;;;;;;5019783;28;20356;-73
2022/06/16 10:26:01;;;;;;;11.55;3.90;;;24.50;75.50;;;;;;5008315;28;20038;-74
2022/06/16 10:28:31;;;;;;;9.13;3.80;;;24.60;75.70;;;;;;5037797;28;20338;-73
2022/06/16 10:30:59;;;;;;;13.73;3.80;;;24.90;74.80;;;;;;5016476;28;20304;-72
2022/06/16 10:33:31;;;;;;;12.02;4.10;;;25.00;74.20;;;;;;5021953;28;20029;-73
2022/06/16 10:36:05;;;;;;;10.57;3.85;;;25.20;74.40;;;;;;5022207;28;20036;-73
2022/06/16 10:38:35;;;;;;;8.45;3.58;;;25.40;74.40;;;;;;5022306;28;20037;-71
2022/06/16 10:41:05;;;;;;;6.93;3.58;;;25.50;73.80;;;;;;5032964;28;20038;-74
2022/06/16 10:43:37;;;;;;;10.23;3.97;;;25.40;73.40;;;;;;5032700;28;20068;-74
2022/06/16 10:46:13;;;;;;;7.95;3.50;;;25.30;74.10;;;;;;5041019;28;20386;-74
2022/06/16 10:48:59;;;;;;;5.78;3.30;;;25.40;72.70;;;;;;5040424;28;20021;-71
2022/06/16 10:51:28;;;;;;;5.32;3.60;;;25.60;72.90;;;;;;5056801;28;20188;-74
2022/06/16 10:54:22;;;;;;;5.97;2.92;;;25.90;71.60;;;;;;5041905;28;20030;-73
2022/06/16 10:56:48;;;;;;;6.45;3.33;;;25.80;71.60;;;;;;5026981;28;20178;-72
2022/06/16 10:59:23;;;;;;;7.10;3.20;;;25.60;71.50;;;;;;5023805;28;20370;-75
2022/06/16 11:01:56;;;;;;;6.70;2.83;;;25.40;71.70;;;;;;5040296;28;20041;-74
2022/06/16 11:04:25;;;;;;;8.82;3.20;;;25.40;72.30;;;;;;5039994;28;20327;-73
2022/06/16 11:06:56;;;;;;;7.32;3.03;;;25.50;70.70;;;;;;5040098;28;20029;-71
2022/06/16 11:09:27;;;;;;;10.20;3.30;;;25.60;71.30;;;;;;5037556;28;20359;-74
2022/06/16 11:12:14;;;;;;;8.93;2.97;;;25.70;71.30;;;;;;5040765;28;20262;-72
2022/06/16 11:14:46;;;;;;;7.20;2.70;;;25.80;71.80;;;;;;5042033;28;20048;-73
2022/06/16 11:17:36;;;;;;;7.63;2.55;;;25.90;70.10;;;;;;5041881;28;20025;-74
2022/06/16 11:20:30;;;;;;;6.32;2.50;;;25.90;69.00;;;;;;5040226;28;20033;-73
2022/06/16 11:22:57;;;;;;;4.88;2.03;;;25.90;67.60;;;;;;5039107;28;20037;-72
2022/06/16 11:25:32;;;;;;;5.55;1.98;;;25.90;67.80;;;;;;5022851;28;20029;-74
2022/06/16 11:28:13;;;;;;;3.92;1.67;;;25.80;65.70;;;;;;5024781;28;20067;-73
2022/06/16 11:30:51;;;;;;;5.13;1.95;;;25.70;64.80;;;;;;5023229;28;20209;-72
2022/06/16 11:36:43;;;;;;;2.63;1.80;;;25.50;64.60;;;;;;5040038;28;20104;-73
2022/06/16 11:39:29;;;;;;;3.05;1.70;;;25.40;64.00;;;;;;5025446;28;20109;-72
2022/06/16 11:41:56;;;;;;;7.30;1.85;;;25.20;63.20;;;;;;5020906;28;20080;-72
2022/06/16 11:44:49;;;;;;;5.65;1.55;;;25.40;61.30;;;;;;5005977;28;20033;-75
2022/06/16 11:47:55;;;;;;;5.35;1.67;;;25.40;60.20;;;;;;5015104;28;20297;-72
2022/06/16 11:51:00;;;;;;;3.95;1.98;;;25.60;63.10;;;;;;5035101;28;20349;-73
2022/06/16 11:54:04;;;;;;;7.45;2.17;;;25.80;62.60;;;;;;5041533;28;20208;-72
2022/06/16 11:56:54;;;;;;;6.35;2.10;;;26.10;62.80;;;;;;5026315;28;20209;-72
2022/06/16 11:59:59;;;;;;;5.70;2.00;;;26.20;61.80;;;;;;5026151;28;20068;-72
2022/06/16 12:03:05;;;;;;;4.30;2.05;;;26.30;63.80;;;;;;5030288;28;20096;-74
2022/06/16 12:05:49;;;;;;;3.72;1.65;;;26.20;63.70;;;;;;5028885;28;20025;-74
2022/06/16 12:08:29;;;;;;;3.08;1.75;;;25.90;63.40;;;;;;5040585;28;20048;-71
2022/06/16 12:11:09;;;;;;;4.72;2.00;;;25.90;62.50;;;;;;5039800;28;20067;-73
2022/06/16 12:14:14;;;;;;;3.90;1.63;;;25.90;65.10;;;;;;5023864;28;20203;-75
2022/06/16 12:16:56;;;;;;;5.57;1.80;;;25.90;64.10;;;;;;5028429;28;20032;-73
2022/06/16 12:19:44;;;;;;;8.48;2.00;;;26.10;63.50;;;;;;5040742;28;20018;-73
2022/06/16 12:22:21;;;;;;;4.53;2.00;;;26.30;64.30;;;;;;5025351;28;20068;-77
2022/06/16 12:25:14;;;;;;;6.72;2.38;;;26.60;64.00;;;;;;5039683;28;20037;-76
2022/06/16 12:27:50;;;;;;;2.35;1.52;;;26.60;62.00;;;;;;5042614;28;20028;-72
2022/06/16 12:30:24;;;;;;;4.70;2.10;;;26.50;61.00;;;;;;5059552;28;20335;-72
2022/06/16 12:33:16;;;;;;;8.20;2.13;;;26.70;64.50;;;;;;5059488;28;20287;-72
2022/06/16 12:35:55;;;;;;;5.65;2.20;;;27.00;65.00;;;;;;5046355;28;20072;-77
2022/06/16 12:38:32;;;;;;;6.60;2.17;;;27.20;65.50;;;;;;5050503;28;20041;-77
2022/06/16 12:41:07;;;;;;;5.70;1.90;;;27.30;65.40;;;;;;5023685;28;20031;-75
2022/06/16 12:43:42;;;;;;;6.15;2.00;;;27.30;63.30;;;;;;5055808;28;20071;-73
2022/06/16 12:46:14;;;;;;;5.28;1.80;;;27.20;62.50;;;;;;5055199;28;20266;-73
2022/06/16 12:48:50;;;;;;;5.40;1.80;;;27.40;61.80;;;;;;5040299;28;20083;-74
2022/06/16 12:51:21;;;;;;;4.10;1.60;;;27.40;62.10;;;;;;5039289;28;20028;-73
2022/06/16 12:54:00;;;;;;;9.60;2.63;;;27.40;61.90;;;;;;5023001;28;20199;-73
2022/06/16 12:56:37;;;;;;;5.55;1.45;;;27.30;61.50;;;;;;5041857;28;20161;-72
2022/06/16 12:59:17;;;;;;;2.88;1.30;;;27.30;60.30;;;;;;5043440;28;20057;-75
2022/06/16 13:01:47;;;;;;;3.30;1.10;;;27.30;59.10;;;;;;5045470;28;20316;-74
2022/06/16 13:04:20;;;;;;;3.10;1.25;;;27.40;58.90;;;;;;5045840;28;20033;-74
2022/06/16 13:06:46;;;;;;;4.50;1.42;;;27.30;56.20;;;;;;5045441;28;20370;-73
2022/06/16 13:09:13;;;;;;;3.50;1.45;;;27.30;57.60;;;;;;5026460;28;20025;-74
2022/06/16 13:12:02;;;;;;;5.85;1.70;;;27.20;59.20;;;;;;5040705;28;20038;-75
2022/06/16 13:14:32;;;;;;;6.28;2.22;;;27.20;59.30;;;;;;5038601;28;20013;-74
2022/06/16 13:17:05;;;;;;;3.42;1.88;;;27.50;58.90;;;;;;5043281;28;20021;-75
2022/06/16 13:19:38;;;;;;;5.75;2.10;;;27.70;58.30;;;;;;5027757;28;20025;-75
2022/06/16 13:22:06;;;;;;;3.60;2.05;;;27.70;59.00;;;;;;5044214;28;20029;-73
2022/06/16 13:24:54;;;;;;;5.13;1.90;;;27.80;58.40;;;;;;5027810;28;20021;-75
2022/06/16 13:27:45;;;;;;;5.68;1.55;;;27.70;58.60;;;;;;5044700;28;20324;-72
2022/06/16 13:30:19;;;;;;;6.63;1.95;;;27.70;59.00;;;;;;5021168;28;20301;-71
2022/06/16 13:33:15;;;;;;;8.50;2.15;;;27.70;58.40;;;;;;5032241;28;20088;-72
2022/06/16 13:35:52;;;;;;;7.30;1.80;;;27.90;59.80;;;;;;5045233;28;20028;-73
2022/06/16 13:38:22;;;;;;;4.78;1.50;;;27.90;59.40;;;;;;5044083;28;20025;-76
2022/06/16 13:41:08;;;;;;;2.93;1.50;;;28.20;59.30;;;;;;5044254;28;20152;-76
2022/06/16 13:43:35;;;;;;;5.13;1.60;;;28.40;59.00;;;;;;5013019;28;20109;-76
2022/06/16 13:46:03;;;;;;;4.07;1.35;;;28.60;58.10;;;;;;5025816;28;20026;-73